sensor_id;sensor_type;location;lat;lon;timestamp;P1;durP1;ratioP1;P2;durP2;ratioP2
16839;SDS011;8536;52.150;11.572;2022-10-20T00:01:43;3.30;;;2.55;;
16839;SDS011;8536;52.150;11.572;2022-10-20T00:04:10;4.85;;;2.67;;
16839;SDS011;8536;52.150;11.572;2022-10-20T00:06:36;3.30;;;2.38;;
16839;SDS011;8536;52.150;11.572;2022-10-20T00:09:03;3.10;;;2.75;;
16839;SDS011;8536;52.150;11.572;2022-10-20T00:11:30;3.13;;;2.92;;
16839;SDS011;8536;52.150;11.572;2022-10-20T00:13:57;3.53;;;2.20;;
16839;SDS011;8536;52.150;11.572;2022-10-20T00:16:25;3.03;;;2.30;;
16839;SDS011;8536;52.150;11.572;2022-10-20T00:18:54;2.42;;;2.20;;
16839;SDS011;8536;52.150;11.572;2022-10-20T00:21:22;2.63;;;2.22;;
16839;SDS011;8536;52.150;11.572;2022-10-20T00:23:50;5.70;;;2.55;;
16839;SDS011;8536;52.150;11.572;2022-10-20T00:26:21;3.05;;;2.70;;
16839;SDS011;8536;52.150;11.572;2022-10-20T00:28:49;3.78;;;2.25;;
16839;SDS011;8536;52.150;11.572;2022-10-20T00:31:17;2.65;;;2.33;;
16839;SDS011;8536;52.150;11.572;2022-10-20T00:33:44;3.00;;;2.45;;
16839;SDS011;8536;52.150;11.572;2022-10-20T00:36:11;4.00;;;2.75;;
16839;SDS011;8536;52.150;11.572;2022-10-20T00:38:39;2.97;;;2.43;;
16839;SDS011;8536;52.150;11.572;2022-10-20T00:41:05;3.83;;;2.43;;
16839;SDS011;8536;52.150;11.572;2022-10-20T00:43:39;2.65;;;2.35;;
16839;SDS011;8536;52.150;11.572;2022-10-20T00:46:15;2.40;;;2.20;;
16839;SDS011;8536;52.150;11.572;2022-10-20T00:48:44;3.30;;;2.20;;
16839;SDS011;8536;52.150;11.572;2022-10-20T00:51:13;3.05;;;2.20;;
16839;SDS011;8536;52.150;11.572;2022-10-20T00:53:42;4.53;;;2.40;;
16839;SDS011;8536;52.150;11.572;2022-10-20T00:56:10;3.25;;;2.10;;
16839;SDS011;8536;52.150;11.572;2022-10-20T00:58:37;2.60;;;2.20;;
16839;SDS011;8536;52.150;11.572;2022-10-20T01:01:04;2.90;;;2.42;;
16839;SDS011;8536;52.150;11.572;2022-10-20T01:03:33;4.60;;;2.95;;
16839;SDS011;8536;52.150;11.572;2022-10-20T01:06:03;3.03;;;2.40;;
16839;SDS011;8536;52.150;11.572;2022-10-20T01:08:30;3.28;;;2.22;;
16839;SDS011;8536;52.150;11.572;2022-10-20T01:11:10;3.08;;;2.17;;
16839;SDS011;8536;52.150;11.572;2022-10-20T01:13:52;2.72;;;2.00;;
16839;SDS011;8536;52.150;11.572;2022-10-20T01:22:34;2.67;;;2.00;;
16839;SDS011;8536;52.150;11.572;2022-10-20T01:25:17;3.58;;;2.58;;
16839;SDS011;8536;52.150;11.572;2022-10-20T01:28:11;2.95;;;2.20;;
16839;SDS011;8536;52.150;11.572;2022-10-20T01:30:48;4.25;;;2.10;;
16839;SDS011;8536;52.150;11.572;2022-10-20T01:35:58;3.72;;;2.15;;
16839;SDS011;8536;52.150;11.572;2022-10-20T01:43:29;4.30;;;2.13;;
16839;SDS011;8536;52.150;11.572;2022-10-20T01:45:57;2.47;;;2.20;;
16839;SDS011;8536;52.150;11.572;2022-10-20T01:48:26;5.28;;;2.10;;
16839;SDS011;8536;52.150;11.572;2022-10-20T01:50:54;4.53;;;2.38;;
16839;SDS011;8536;52.150;11.572;2022-10-20T01:53:21;2.30;;;2.10;;
16839;SDS011;8536;52.150;11.572;2022-10-20T01:55:52;2.50;;;2.30;;
16839;SDS011;8536;52.150;11.572;2022-10-20T02:00:49;2.77;;;2.03;;
16839;SDS011;8536;52.150;11.572;2022-10-20T02:03:25;1.90;;;1.70;;
16839;SDS011;8536;52.150;11.572;2022-10-20T02:11:13;2.50;;;1.90;;
16839;SDS011;8536;52.150;11.572;2022-10-20T02:13:47;2.70;;;2.20;;
16839;SDS011;8536;52.150;11.572;2022-10-20T02:16:17;3.15;;;2.03;;
16839;SDS011;8536;52.150;11.572;2022-10-20T02:18:47;4.13;;;2.13;;
16839;SDS011;8536;52.150;11.572;2022-10-20T02:25:01;2.97;;;1.90;;
16839;SDS011;8536;52.150;11.572;2022-10-20T02:27:29;4.55;;;1.95;;
16839;SDS011;8536;52.150;11.572;2022-10-20T02:30:05;3.17;;;2.07;;
16839;SDS011;8536;52.150;11.572;2022-10-20T02:32:37;2.35;;;1.55;;
16839;SDS011;8536;52.150;11.572;2022-10-20T02:35:07;2.63;;;1.92;;
16839;SDS011;8536;52.150;11.572;2022-10-20T02:37:35;3.03;;;1.70;;
16839;SDS011;8536;52.150;11.572;2022-10-20T02:40:02;3.95;;;1.50;;
16839;SDS011;8536;52.150;11.572;2022-10-20T02:42:29;4.55;;;2.08;;
16839;SDS011;8536;52.150;11.572;2022-10-20T02:44:56;1.98;;;1.42;;
16839;SDS011;8536;52.150;11.572;2022-10-20T02:47:22;1.77;;;1.55;;
16839;SDS011;8536;52.150;11.572;2022-10-20T02:49:49;1.40;;;1.30;;
16839;SDS011;8536;52.150;11.572;2022-10-20T02:52:15;3.08;;;1.42;;
16839;SDS011;8536;52.150;11.572;2022-10-20T02:54:42;3.47;;;1.80;;
16839;SDS011;8536;52.150;11.572;2022-10-20T02:57:08;2.30;;;1.75;;
16839;SDS011;8536;52.150;11.572;2022-10-20T02:59:35;2.05;;;1.38;;
16839;SDS011;8536;52.150;11.572;2022-10-20T03:02:01;2.17;;;1.97;;
16839;SDS011;8536;52.150;11.572;2022-10-20T03:04:28;3.03;;;1.70;;
16839;SDS011;8536;52.150;11.572;2022-10-20T03:06:55;3.13;;;1.90;;
16839;SDS011;8536;52.150;11.572;2022-10-20T03:09:21;2.03;;;1.80;;
16839;SDS011;8536;52.150;11.572;2022-10-20T03:11:48;2.13;;;1.93;;
16839;SDS011;8536;52.150;11.572;2022-10-20T03:14:14;2.13;;;1.50;;
16839;SDS011;8536;52.150;11.572;2022-10-20T03:16:41;2.63;;;1.90;;
16839;SDS011;8536;52.150;11.572;2022-10-20T03:19:07;2.47;;;1.70;;
16839;SDS011;8536;52.150;11.572;2022-10-20T03:21:37;2.47;;;1.50;;
16839;SDS011;8536;52.150;11.572;2022-10-20T03:24:03;1.70;;;1.60;;
16839;SDS011;8536;52.150;11.572;2022-10-20T03:26:30;2.53;;;1.60;;
16839;SDS011;8536;52.150;11.572;2022-10-20T03:28:57;1.95;;;1.50;;
16839;SDS011;8536;52.150;11.572;2022-10-20T03:31:23;2.43;;;1.80;;
16839;SDS011;8536;52.150;11.572;2022-10-20T03:33:50;2.57;;;1.73;;
16839;SDS011;8536;52.150;11.572;2022-10-20T03:36:16;2.13;;;1.50;;
16839;SDS011;8536;52.150;11.572;2022-10-20T03:38:43;2.60;;;1.73;;
16839;SDS011;8536;52.150;11.572;2022-10-20T03:41:09;2.23;;;1.60;;
16839;SDS011;8536;52.150;11.572;2022-10-20T03:43:39;2.20;;;1.40;;
16839;SDS011;8536;52.150;11.572;2022-10-20T03:46:13;1.93;;;1.77;;
16839;SDS011;8536;52.150;11.572;2022-10-20T03:55:03;3.13;;;2.37;;
16839;SDS011;8536;52.150;11.572;2022-10-20T03:57:29;3.33;;;2.27;;
16839;SDS011;8536;52.150;11.572;2022-10-20T03:59:56;2.93;;;1.97;;
16839;SDS011;8536;52.150;11.572;2022-10-20T04:02:36;2.90;;;2.60;;
16839;SDS011;8536;52.150;11.572;2022-10-20T04:05:04;4.57;;;2.03;;
16839;SDS011;8536;52.150;11.572;2022-10-20T04:07:31;2.43;;;1.80;;
16839;SDS011;8536;52.150;11.572;2022-10-20T04:09:58;2.40;;;2.03;;
16839;SDS011;8536;52.150;11.572;2022-10-20T04:12:27;5.47;;;2.10;;
16839;SDS011;8536;52.150;11.572;2022-10-20T04:14:53;3.63;;;2.00;;
16839;SDS011;8536;52.150;11.572;2022-10-20T04:17:20;4.23;;;2.20;;
16839;SDS011;8536;52.150;11.572;2022-10-20T04:19:46;2.30;;;2.00;;
16839;SDS011;8536;52.150;11.572;2022-10-20T04:22:13;3.63;;;2.53;;
16839;SDS011;8536;52.150;11.572;2022-10-20T04:24:39;2.80;;;2.20;;
16839;SDS011;8536;52.150;11.572;2022-10-20T04:27:06;2.75;;;2.53;;
16839;SDS011;8536;52.150;11.572;2022-10-20T04:29:33;3.73;;;2.83;;
16839;SDS011;8536;52.150;11.572;2022-10-20T04:31:59;4.90;;;2.93;;
16839;SDS011;8536;52.150;11.572;2022-10-20T04:34:26;4.50;;;2.90;;
16839;SDS011;8536;52.150;11.572;2022-10-20T04:36:52;5.97;;;2.80;;
16839;SDS011;8536;52.150;11.572;2022-10-20T04:39:19;4.93;;;2.90;;
16839;SDS011;8536;52.150;11.572;2022-10-20T04:41:45;4.67;;;2.90;;
16839;SDS011;8536;52.150;11.572;2022-10-20T04:44:12;3.43;;;2.63;;
16839;SDS011;8536;52.150;11.572;2022-10-20T04:46:38;5.47;;;3.20;;
16839;SDS011;8536;52.150;11.572;2022-10-20T04:49:05;4.32;;;2.70;;
16839;SDS011;8536;52.150;11.572;2022-10-20T04:51:31;4.80;;;2.87;;
16839;SDS011;8536;52.150;11.572;2022-10-20T04:53:58;4.43;;;2.90;;
16839;SDS011;8536;52.150;11.572;2022-10-20T04:56:24;5.43;;;2.90;;
16839;SDS011;8536;52.150;11.572;2022-10-20T04:58:54;4.40;;;3.17;;
16839;SDS011;8536;52.150;11.572;2022-10-20T05:01:23;4.67;;;3.23;;
16839;SDS011;8536;52.150;11.572;2022-10-20T05:03:51;6.32;;;3.30;;
16839;SDS011;8536;52.150;11.572;2022-10-20T05:08:45;4.33;;;2.87;;
16839;SDS011;8536;52.150;11.572;2022-10-20T05:11:14;4.83;;;3.10;;
16839;SDS011;8536;52.150;11.572;2022-10-20T05:13:41;4.80;;;3.13;;
16839;SDS011;8536;52.150;11.572;2022-10-20T05:16:08;4.53;;;3.20;;
16839;SDS011;8536;52.150;11.572;2022-10-20T05:18:35;7.70;;;3.63;;
16839;SDS011;8536;52.150;11.572;2022-10-20T05:21:09;4.13;;;3.40;;
16839;SDS011;8536;52.150;11.572;2022-10-20T05:23:42;5.90;;;3.67;;
16839;SDS011;8536;52.150;11.572;2022-10-20T05:26:13;4.80;;;3.47;;
16839;SDS011;8536;52.150;11.572;2022-10-20T05:28:42;5.50;;;3.40;;
16839;SDS011;8536;52.150;11.572;2022-10-20T05:31:10;5.63;;;3.47;;
16839;SDS011;8536;52.150;11.572;2022-10-20T05:33:37;5.07;;;3.70;;
16839;SDS011;8536;52.150;11.572;2022-10-20T05:36:07;5.43;;;3.63;;
16839;SDS011;8536;52.150;11.572;2022-10-20T05:38:40;5.43;;;3.93;;
16839;SDS011;8536;52.150;11.572;2022-10-20T05:41:10;5.30;;;3.70;;
16839;SDS011;8536;52.150;11.572;2022-10-20T05:43:38;5.23;;;3.83;;
16839;SDS011;8536;52.150;11.572;2022-10-20T05:46:05;5.30;;;3.73;;
16839;SDS011;8536;52.150;11.572;2022-10-20T05:48:32;5.37;;;4.17;;
16839;SDS011;8536;52.150;11.572;2022-10-20T05:53:40;4.77;;;3.90;;
16839;SDS011;8536;52.150;11.572;2022-10-20T05:56:07;4.53;;;3.80;;
16839;SDS011;8536;52.150;11.572;2022-10-20T05:58:35;5.10;;;3.90;;
16839;SDS011;8536;52.150;11.572;2022-10-20T06:01:06;5.83;;;4.30;;
16839;SDS011;8536;52.150;11.572;2022-10-20T06:03:48;6.63;;;3.80;;
16839;SDS011;8536;52.150;11.572;2022-10-20T06:06:16;6.27;;;4.20;;
16839;SDS011;8536;52.150;11.572;2022-10-20T06:08:43;4.83;;;3.60;;
16839;SDS011;8536;52.150;11.572;2022-10-20T06:11:10;4.80;;;3.67;;
16839;SDS011;8536;52.150;11.572;2022-10-20T06:13:38;4.97;;;4.10;;
16839;SDS011;8536;52.150;11.572;2022-10-20T06:16:06;5.03;;;4.27;;
16839;SDS011;8536;52.150;11.572;2022-10-20T06:18:36;4.33;;;3.93;;
16839;SDS011;8536;52.150;11.572;2022-10-20T06:21:05;5.63;;;4.43;;
16839;SDS011;8536;52.150;11.572;2022-10-20T06:23:32;6.23;;;4.60;;
16839;SDS011;8536;52.150;11.572;2022-10-20T06:26:03;8.30;;;5.43;;
16839;SDS011;8536;52.150;11.572;2022-10-20T06:28:32;7.37;;;5.70;;
16839;SDS011;8536;52.150;11.572;2022-10-20T06:31:00;6.33;;;5.63;;
16839;SDS011;8536;52.150;11.572;2022-10-20T06:33:28;8.27;;;6.77;;
16839;SDS011;8536;52.150;11.572;2022-10-20T06:35:58;10.30;;;7.15;;
16839;SDS011;8536;52.150;11.572;2022-10-20T06:38:28;10.53;;;7.10;;
16839;SDS011;8536;52.150;11.572;2022-10-20T06:40:54;9.15;;;7.15;;
16839;SDS011;8536;52.150;11.572;2022-10-20T06:43:21;11.47;;;7.67;;
16839;SDS011;8536;52.150;11.572;2022-10-20T06:45:57;8.33;;;6.77;;
16839;SDS011;8536;52.150;11.572;2022-10-20T06:48:26;7.82;;;6.43;;
16839;SDS011;8536;52.150;11.572;2022-10-20T06:50:56;8.82;;;6.70;;
16839;SDS011;8536;52.150;11.572;2022-10-20T06:53:23;7.47;;;6.57;;
16839;SDS011;8536;52.150;11.572;2022-10-20T06:55:57;9.53;;;6.93;;
16839;SDS011;8536;52.150;11.572;2022-10-20T06:58:24;8.40;;;6.87;;
16839;SDS011;8536;52.150;11.572;2022-10-20T07:03:36;7.70;;;6.13;;
16839;SDS011;8536;52.150;11.572;2022-10-20T07:06:03;9.43;;;6.88;;
16839;SDS011;8536;52.150;11.572;2022-10-20T07:08:31;11.07;;;7.55;;
16839;SDS011;8536;52.150;11.572;2022-10-20T07:11:03;7.97;;;6.72;;
16839;SDS011;8536;52.150;11.572;2022-10-20T07:13:32;9.60;;;7.57;;
16839;SDS011;8536;52.150;11.572;2022-10-20T07:15:59;10.02;;;7.18;;
16839;SDS011;8536;52.150;11.572;2022-10-20T07:18:26;8.07;;;6.65;;
16839;SDS011;8536;52.150;11.572;2022-10-20T07:20:57;11.00;;;7.38;;
16839;SDS011;8536;52.150;11.572;2022-10-20T07:23:25;9.27;;;7.07;;
16839;SDS011;8536;52.150;11.572;2022-10-20T07:25:59;10.02;;;7.53;;
16839;SDS011;8536;52.150;11.572;2022-10-20T07:28:30;10.02;;;7.38;;
16839;SDS011;8536;52.150;11.572;2022-10-20T07:30:56;10.48;;;8.20;;
16839;SDS011;8536;52.150;11.572;2022-10-20T07:33:28;8.82;;;7.65;;
16839;SDS011;8536;52.150;11.572;2022-10-20T07:35:54;12.45;;;8.57;;
16839;SDS011;8536;52.150;11.572;2022-10-20T07:38:20;10.40;;;8.07;;
16839;SDS011;8536;52.150;11.572;2022-10-20T07:40:47;10.95;;;8.07;;
16839;SDS011;8536;52.150;11.572;2022-10-20T07:43:13;10.55;;;8.35;;
16839;SDS011;8536;52.150;11.572;2022-10-20T07:45:40;13.35;;;8.85;;
16839;SDS011;8536;52.150;11.572;2022-10-20T07:48:06;11.48;;;8.60;;
16839;SDS011;8536;52.150;11.572;2022-10-20T07:50:35;13.05;;;9.88;;
16839;SDS011;8536;52.150;11.572;2022-10-20T07:53:03;11.43;;;9.10;;
16839;SDS011;8536;52.150;11.572;2022-10-20T07:55:31;9.45;;;8.40;;
16839;SDS011;8536;52.150;11.572;2022-10-20T07:58:04;13.48;;;9.68;;
16839;SDS011;8536;52.150;11.572;2022-10-20T08:00:30;14.68;;;9.15;;
16839;SDS011;8536;52.150;11.572;2022-10-20T08:02:57;9.93;;;8.93;;
16839;SDS011;8536;52.150;11.572;2022-10-20T08:05:23;10.25;;;9.00;;
16839;SDS011;8536;52.150;11.572;2022-10-20T08:07:50;11.43;;;9.45;;
16839;SDS011;8536;52.150;11.572;2022-10-20T08:10:17;12.25;;;9.27;;
16839;SDS011;8536;52.150;11.572;2022-10-20T08:12:43;11.15;;;9.95;;
16839;SDS011;8536;52.150;11.572;2022-10-20T08:15:10;9.75;;;8.75;;
16839;SDS011;8536;52.150;11.572;2022-10-20T08:17:36;10.55;;;8.95;;
16839;SDS011;8536;52.150;11.572;2022-10-20T08:20:06;10.77;;;9.30;;
16839;SDS011;8536;52.150;11.572;2022-10-20T08:22:48;10.32;;;9.25;;
16839;SDS011;8536;52.150;11.572;2022-10-20T08:25:15;13.90;;;11.50;;
16839;SDS011;8536;52.150;11.572;2022-10-20T08:27:41;10.75;;;9.65;;
16839;SDS011;8536;52.150;11.572;2022-10-20T08:30:08;10.98;;;9.85;;
16839;SDS011;8536;52.150;11.572;2022-10-20T08:32:50;9.48;;;8.57;;
16839;SDS011;8536;52.150;11.572;2022-10-20T08:35:17;11.52;;;9.70;;
16839;SDS011;8536;52.150;11.572;2022-10-20T08:37:44;13.15;;;10.13;;
16839;SDS011;8536;52.150;11.572;2022-10-20T08:40:13;10.57;;;8.90;;
16839;SDS011;8536;52.150;11.572;2022-10-20T08:42:41;9.77;;;8.68;;
16839;SDS011;8536;52.150;11.572;2022-10-20T08:45:13;9.63;;;8.73;;
16839;SDS011;8536;52.150;11.572;2022-10-20T08:47:41;10.98;;;8.98;;
16839;SDS011;8536;52.150;11.572;2022-10-20T08:50:09;9.45;;;8.55;;
16839;SDS011;8536;52.150;11.572;2022-10-20T08:52:39;10.15;;;9.00;;
16839;SDS011;8536;52.150;11.572;2022-10-20T08:55:06;10.02;;;8.75;;
16839;SDS011;8536;52.150;11.572;2022-10-20T08:57:33;12.77;;;9.30;;
16839;SDS011;8536;52.150;11.572;2022-10-20T09:00:18;10.23;;;8.77;;
16839;SDS011;8536;52.150;11.572;2022-10-20T09:02:47;12.27;;;9.35;;
16839;SDS011;8536;52.150;11.572;2022-10-20T09:05:14;9.57;;;8.43;;
16839;SDS011;8536;52.150;11.572;2022-10-20T09:07:44;8.30;;;7.50;;
16839;SDS011;8536;52.150;11.572;2022-10-20T09:10:30;9.70;;;7.43;;
16839;SDS011;8536;52.150;11.572;2022-10-20T09:12:59;8.48;;;7.10;;
16839;SDS011;8536;52.150;11.572;2022-10-20T09:15:26;8.20;;;7.40;;
16839;SDS011;8536;52.150;11.572;2022-10-20T09:18:03;7.95;;;7.15;;
16839;SDS011;8536;52.150;11.572;2022-10-20T09:20:39;8.50;;;6.95;;
16839;SDS011;8536;52.150;11.572;2022-10-20T09:23:13;7.35;;;6.55;;
16839;SDS011;8536;52.150;11.572;2022-10-20T09:26:01;8.90;;;6.47;;
16839;SDS011;8536;52.150;11.572;2022-10-20T09:28:27;6.72;;;6.13;;
16839;SDS011;8536;52.150;11.572;2022-10-20T09:31:30;7.70;;;6.07;;
16839;SDS011;8536;52.150;11.572;2022-10-20T09:33:58;7.03;;;6.07;;
16839;SDS011;8536;52.150;11.572;2022-10-20T09:36:27;6.90;;;6.20;;
16839;SDS011;8536;52.150;11.572;2022-10-20T09:38:56;6.68;;;5.47;;
16839;SDS011;8536;52.150;11.572;2022-10-20T09:41:23;6.78;;;5.85;;
16839;SDS011;8536;52.150;11.572;2022-10-20T09:43:53;7.25;;;6.20;;
16839;SDS011;8536;52.150;11.572;2022-10-20T09:46:31;7.68;;;5.88;;
16839;SDS011;8536;52.150;11.572;2022-10-20T09:49:02;5.70;;;5.20;;
16839;SDS011;8536;52.150;11.572;2022-10-20T09:51:30;5.90;;;5.25;;
16839;SDS011;8536;52.150;11.572;2022-10-20T09:54:00;6.28;;;5.65;;
16839;SDS011;8536;52.150;11.572;2022-10-20T09:56:32;6.00;;;5.40;;
16839;SDS011;8536;52.150;11.572;2022-10-20T09:59:01;5.82;;;5.28;;
16839;SDS011;8536;52.150;11.572;2022-10-20T10:01:29;10.98;;;5.55;;
16839;SDS011;8536;52.150;11.572;2022-10-20T10:03:56;6.82;;;6.05;;
16839;SDS011;8536;52.150;11.572;2022-10-20T10:08:58;6.10;;;5.35;;
16839;SDS011;8536;52.150;11.572;2022-10-20T10:11:31;5.85;;;5.35;;
16839;SDS011;8536;52.150;11.572;2022-10-20T10:13:59;5.72;;;5.15;;
16839;SDS011;8536;52.150;11.572;2022-10-20T10:16:26;5.97;;;5.38;;
16839;SDS011;8536;52.150;11.572;2022-10-20T10:18:54;5.40;;;4.90;;
16839;SDS011;8536;52.150;11.572;2022-10-20T10:21:23;6.95;;;5.32;;
16839;SDS011;8536;52.150;11.572;2022-10-20T10:24:00;7.50;;;5.30;;
16839;SDS011;8536;52.150;11.572;2022-10-20T10:29:04;4.45;;;4.03;;
16839;SDS011;8536;52.150;11.572;2022-10-20T10:31:48;6.50;;;4.90;;
16839;SDS011;8536;52.150;11.572;2022-10-20T10:36:43;5.10;;;4.60;;
16839;SDS011;8536;52.150;11.572;2022-10-20T10:39:10;5.75;;;4.78;;
16839;SDS011;8536;52.150;11.572;2022-10-20T10:49:44;5.38;;;4.80;;
16839;SDS011;8536;52.150;11.572;2022-10-20T10:58:20;4.70;;;4.30;;
16839;SDS011;8536;52.150;11.572;2022-10-20T11:03:38;5.40;;;4.38;;
16839;SDS011;8536;52.150;11.572;2022-10-20T11:06:15;4.80;;;4.40;;
16839;SDS011;8536;52.150;11.572;2022-10-20T11:08:51;4.45;;;4.05;;
16839;SDS011;8536;52.150;11.572;2022-10-20T11:19:56;4.95;;;4.45;;
16839;SDS011;8536;52.150;11.572;2022-10-20T11:22:29;4.45;;;4.03;;
16839;SDS011;8536;52.150;11.572;2022-10-20T11:27:47;4.78;;;4.10;;
16839;SDS011;8536;52.150;11.572;2022-10-20T11:30:20;4.55;;;4.15;;
16839;SDS011;8536;52.150;11.572;2022-10-20T11:35:45;4.78;;;4.35;;
16839;SDS011;8536;52.150;11.572;2022-10-20T11:40:51;5.38;;;4.80;;
16839;SDS011;8536;52.150;11.572;2022-10-20T11:43:26;5.10;;;4.65;;
16839;SDS011;8536;52.150;11.572;2022-10-20T11:48:27;5.75;;;4.55;;
16839;SDS011;8536;52.150;11.572;2022-10-20T11:51:12;5.57;;;4.95;;
16839;SDS011;8536;52.150;11.572;2022-10-20T12:08:25;4.90;;;4.43;;
16839;SDS011;8536;52.150;11.572;2022-10-20T12:11:11;5.30;;;4.07;;
16839;SDS011;8536;52.150;11.572;2022-10-20T12:24:40;5.32;;;4.20;;
16839;SDS011;8536;52.150;11.572;2022-10-20T12:34:47;4.00;;;3.63;;
16839;SDS011;8536;52.150;11.572;2022-10-20T12:37:18;5.53;;;3.25;;
16839;SDS011;8536;52.150;11.572;2022-10-20T12:39:45;3.30;;;3.00;;
16839;SDS011;8536;52.150;11.572;2022-10-20T12:44:50;3.38;;;2.88;;
16839;SDS011;8536;52.150;11.572;2022-10-20T12:47:24;3.30;;;2.97;;
16839;SDS011;8536;52.150;11.572;2022-10-20T12:49:56;3.85;;;3.20;;
16839;SDS011;8536;52.150;11.572;2022-10-20T12:52:26;3.33;;;2.85;;
16839;SDS011;8536;52.150;11.572;2022-10-20T12:55:37;3.50;;;2.70;;
16839;SDS011;8536;52.150;11.572;2022-10-20T12:57:47;5.25;;;3.28;;
16839;SDS011;8536;52.150;11.572;2022-10-20T13:02:53;2.78;;;2.50;;
16839;SDS011;8536;52.150;11.572;2022-10-20T13:05:28;2.80;;;2.42;;
16839;SDS011;8536;52.150;11.572;2022-10-20T13:08:15;3.25;;;2.85;;
16839;SDS011;8536;52.150;11.572;2022-10-20T13:10:44;2.92;;;2.47;;
16839;SDS011;8536;52.150;11.572;2022-10-20T13:20:54;3.00;;;2.63;;
16839;SDS011;8536;52.150;11.572;2022-10-20T13:23:36;3.70;;;2.90;;
16839;SDS011;8536;52.150;11.572;2022-10-20T13:28:45;3.20;;;2.63;;
16839;SDS011;8536;52.150;11.572;2022-10-20T13:31:15;4.15;;;3.53;;
16839;SDS011;8536;52.150;11.572;2022-10-20T13:36:41;4.25;;;2.70;;
16839;SDS011;8536;52.150;11.572;2022-10-20T13:39:17;3.33;;;2.75;;
16839;SDS011;8536;52.150;11.572;2022-10-20T13:47:28;4.43;;;2.80;;
16839;SDS011;8536;52.150;11.572;2022-10-20T13:50:00;2.88;;;2.45;;
16839;SDS011;8536;52.150;11.572;2022-10-20T13:52:36;3.25;;;2.50;;
16839;SDS011;8536;52.150;11.572;2022-10-20T13:55:06;2.88;;;2.45;;
16839;SDS011;8536;52.150;11.572;2022-10-20T13:57:33;3.05;;;2.70;;
16839;SDS011;8536;52.150;11.572;2022-10-20T14:00:20;2.85;;;2.25;;
16839;SDS011;8536;52.150;11.572;2022-10-20T14:02:53;4.38;;;2.70;;
16839;SDS011;8536;52.150;11.572;2022-10-20T14:05:20;4.10;;;2.78;;
16839;SDS011;8536;52.150;11.572;2022-10-20T14:07:47;2.58;;;2.38;;
16839;SDS011;8536;52.150;11.572;2022-10-20T14:10:19;5.68;;;2.58;;
16839;SDS011;8536;52.150;11.572;2022-10-20T14:12:47;2.88;;;2.30;;
16839;SDS011;8536;52.150;11.572;2022-10-20T14:15:15;3.72;;;2.92;;
16839;SDS011;8536;52.150;11.572;2022-10-20T14:17:55;3.00;;;2.53;;
16839;SDS011;8536;52.150;11.572;2022-10-20T14:20:28;3.00;;;2.58;;
16839;SDS011;8536;52.150;11.572;2022-10-20T14:22:56;5.25;;;2.58;;
16839;SDS011;8536;52.150;11.572;2022-10-20T14:25:24;2.88;;;2.35;;
16839;SDS011;8536;52.150;11.572;2022-10-20T14:27:52;3.83;;;2.72;;
16839;SDS011;8536;52.150;11.572;2022-10-20T14:30:19;3.15;;;2.85;;
16839;SDS011;8536;52.150;11.572;2022-10-20T14:32:47;2.78;;;2.55;;
16839;SDS011;8536;52.150;11.572;2022-10-20T14:38:05;3.72;;;2.75;;
16839;SDS011;8536;52.150;11.572;2022-10-20T14:40:39;2.53;;;2.33;;
16839;SDS011;8536;52.150;11.572;2022-10-20T14:43:13;3.33;;;2.70;;
16839;SDS011;8536;52.150;11.572;2022-10-20T14:45:55;2.90;;;2.20;;
16839;SDS011;8536;52.150;11.572;2022-10-20T14:48:27;3.30;;;2.38;;
16839;SDS011;8536;52.150;11.572;2022-10-20T14:50:57;4.00;;;2.65;;
16839;SDS011;8536;52.150;11.572;2022-10-20T14:53:33;2.65;;;2.40;;
16839;SDS011;8536;52.150;11.572;2022-10-20T14:56:00;4.13;;;2.25;;
16839;SDS011;8536;52.150;11.572;2022-10-20T14:58:28;3.20;;;2.80;;
16839;SDS011;8536;52.150;11.572;2022-10-20T15:01:21;3.15;;;2.50;;
16839;SDS011;8536;52.150;11.572;2022-10-20T15:06:30;4.90;;;3.15;;
16839;SDS011;8536;52.150;11.572;2022-10-20T15:08:56;4.38;;;2.55;;
16839;SDS011;8536;52.150;11.572;2022-10-20T15:11:23;2.72;;;2.53;;
16839;SDS011;8536;52.150;11.572;2022-10-20T15:13:52;3.78;;;2.80;;
16839;SDS011;8536;52.150;11.572;2022-10-20T15:16:33;3.10;;;2.72;;
16839;SDS011;8536;52.150;11.572;2022-10-20T15:19:38;3.50;;;2.80;;
16839;SDS011;8536;52.150;11.572;2022-10-20T15:22:07;3.33;;;2.88;;
16839;SDS011;8536;52.150;11.572;2022-10-20T15:24:35;3.53;;;2.95;;
16839;SDS011;8536;52.150;11.572;2022-10-20T15:27:02;5.20;;;3.38;;
16839;SDS011;8536;52.150;11.572;2022-10-20T15:29:29;5.22;;;3.72;;
16839;SDS011;8536;52.150;11.572;2022-10-20T15:31:57;6.95;;;3.47;;
16839;SDS011;8536;52.150;11.572;2022-10-20T15:34:23;4.70;;;3.08;;
16839;SDS011;8536;52.150;11.572;2022-10-20T15:36:50;3.90;;;3.17;;
16839;SDS011;8536;52.150;11.572;2022-10-20T15:39:17;3.67;;;2.85;;
16839;SDS011;8536;52.150;11.572;2022-10-20T15:41:43;4.63;;;3.50;;
16839;SDS011;8536;52.150;11.572;2022-10-20T15:44:16;6.03;;;3.63;;
16839;SDS011;8536;52.150;11.572;2022-10-20T15:46:46;4.90;;;3.00;;
16839;SDS011;8536;52.150;11.572;2022-10-20T15:49:14;2.85;;;2.65;;
16839;SDS011;8536;52.150;11.572;2022-10-20T15:51:41;3.95;;;3.03;;
16839;SDS011;8536;52.150;11.572;2022-10-20T15:54:16;5.32;;;2.88;;
16839;SDS011;8536;52.150;11.572;2022-10-20T15:56:44;5.38;;;3.17;;
16839;SDS011;8536;52.150;11.572;2022-10-20T15:59:11;4.30;;;2.80;;
16839;SDS011;8536;52.150;11.572;2022-10-20T16:01:37;4.75;;;3.33;;
16839;SDS011;8536;52.150;11.572;2022-10-20T16:04:25;3.75;;;3.38;;
16839;SDS011;8536;52.150;11.572;2022-10-20T16:06:54;3.90;;;3.47;;
16839;SDS011;8536;52.150;11.572;2022-10-20T16:09:25;5.55;;;3.15;;
16839;SDS011;8536;52.150;11.572;2022-10-20T16:11:52;3.45;;;3.00;;
16839;SDS011;8536;52.150;11.572;2022-10-20T16:14:18;4.07;;;3.20;;
16839;SDS011;8536;52.150;11.572;2022-10-20T16:16:44;5.38;;;3.67;;
16839;SDS011;8536;52.150;11.572;2022-10-20T16:19:11;3.63;;;3.25;;
16839;SDS011;8536;52.150;11.572;2022-10-20T16:21:39;3.83;;;3.20;;
16839;SDS011;8536;52.150;11.572;2022-10-20T16:24:06;4.55;;;2.90;;
16839;SDS011;8536;52.150;11.572;2022-10-20T16:26:33;3.80;;;3.10;;
16839;SDS011;8536;52.150;11.572;2022-10-20T16:28:59;3.97;;;3.55;;
16839;SDS011;8536;52.150;11.572;2022-10-20T16:31:25;5.60;;;3.03;;
16839;SDS011;8536;52.150;11.572;2022-10-20T16:33:52;6.80;;;3.38;;
16839;SDS011;8536;52.150;11.572;2022-10-20T16:36:18;5.35;;;3.40;;
16839;SDS011;8536;52.150;11.572;2022-10-20T16:38:46;5.30;;;3.35;;
16839;SDS011;8536;52.150;11.572;2022-10-20T16:41:14;3.75;;;3.00;;
16839;SDS011;8536;52.150;11.572;2022-10-20T16:43:42;3.60;;;3.20;;
16839;SDS011;8536;52.150;11.572;2022-10-20T16:46:10;3.67;;;3.03;;
16839;SDS011;8536;52.150;11.572;2022-10-20T16:48:37;4.80;;;3.30;;
16839;SDS011;8536;52.150;11.572;2022-10-20T16:51:09;6.75;;;3.60;;
16839;SDS011;8536;52.150;11.572;2022-10-20T16:53:36;4.53;;;3.35;;
16839;SDS011;8536;52.150;11.572;2022-10-20T16:56:03;3.25;;;2.95;;
16839;SDS011;8536;52.150;11.572;2022-10-20T16:58:30;3.20;;;2.80;;
16839;SDS011;8536;52.150;11.572;2022-10-20T17:03:34;4.15;;;2.92;;
16839;SDS011;8536;52.150;11.572;2022-10-20T17:06:02;4.40;;;3.30;;
16839;SDS011;8536;52.150;11.572;2022-10-20T17:08:30;4.13;;;3.00;;
16839;SDS011;8536;52.150;11.572;2022-10-20T17:10:58;3.72;;;2.72;;
16839;SDS011;8536;52.150;11.572;2022-10-20T17:13:27;5.82;;;3.40;;
16839;SDS011;8536;52.150;11.572;2022-10-20T17:15:54;3.70;;;3.00;;
16839;SDS011;8536;52.150;11.572;2022-10-20T17:18:21;4.07;;;3.47;;
16839;SDS011;8536;52.150;11.572;2022-10-20T17:20:52;4.75;;;3.10;;
16839;SDS011;8536;52.150;11.572;2022-10-20T17:23:20;3.83;;;3.30;;
16839;SDS011;8536;52.150;11.572;2022-10-20T17:25:47;3.92;;;3.03;;
16839;SDS011;8536;52.150;11.572;2022-10-20T17:28:15;3.72;;;3.22;;
16839;SDS011;8536;52.150;11.572;2022-10-20T17:30:42;5.90;;;3.38;;